Time;durP1;ratioP1;P1;durP2;ratioP2;P2;SDS_P1;SDS_P2;PMS_P1;PMS_P2;Temp;Humidity;BMP_temperature;BMP_pressure;BME280_temperature;BME280_humidity;BME280_pressure;Samples;Min_cycle;Max_cycle;Signal;HPM_P1;HPM_P2
2022/09/08 00:01:42;;;;;;;5.70;5.20;;;18.60;1.00;;;;;;6265357;28;20260;-52
2022/09/08 00:04:46;;;;;;;5.83;5.43;;;18.60;1.00;;;;;;6297358;28;20232;-54
2022/09/08 00:07:50;;;;;;;15.17;5.90;;;18.50;1.00;;;;;;6274466;28;20728;-55
2022/09/08 00:10:54;;;;;;;7.47;4.53;;;18.60;1.00;;;;;;6258660;28;20260;-54
2022/09/08 00:14:05;;;;;;;5.43;5.00;;;18.50;1.00;;;;;;6258708;28;20604;-53
2022/09/08 00:17:08;;;;;;;5.80;5.20;;;18.50;1.00;;;;;;6257513;28;20273;-54
2022/09/08 00:20:13;;;;;;;5.43;5.00;;;18.50;1.00;;;;;;6280992;28;20607;-54
2022/09/08 00:23:15;;;;;;;6.47;4.90;;;18.40;1.00;;;;;;6304121;28;20479;-53
2022/09/08 00:26:19;;;;;;;5.53;5.03;;;18.40;1.00;;;;;;6313497;28;20236;-54
2022/09/08 00:29:22;;;;;;;9.40;5.33;;;18.30;1.00;;;;;;6267183;28;20241;-54
2022/09/08 00:32:25;;;;;;;6.17;5.20;;;18.30;1.00;;;;;;6267466;28;20244;-54
2022/09/08 00:35:30;;;;;;;5.60;5.13;;;18.30;1.00;;;;;;6286120;28;20253;-53
2022/09/08 00:38:34;;;;;;;5.40;5.03;;;18.30;1.00;;;;;;6287399;28;20252;-53
2022/09/08 00:41:37;;;;;;;5.83;5.33;;;18.30;1.00;;;;;;6279704;28;20238;-53
2022/09/08 00:44:48;;;;;;;5.70;5.20;;;18.30;1.00;;;;;;6262971;28;20238;-54
2022/09/08 00:47:59;;;;;;;6.87;5.17;;;18.30;1.00;;;;;;6262649;28;20645;-54
2022/09/08 00:51:03;;;;;;;5.70;4.90;;;18.20;1.00;;;;;;6296039;28;20230;-55
2022/09/08 00:54:07;;;;;;;7.40;4.93;;;18.20;1.00;;;;;;6303483;28;20241;-54
2022/09/08 00:57:10;;;;;;;7.53;5.30;;;18.10;1.00;;;;;;6307516;28;20243;-54
2022/09/08 01:00:18;;;;;;;5.77;5.07;;;18.10;1.00;;;;;;6313206;28;20724;-54
2022/09/08 01:03:20;;;;;;;6.03;4.93;;;18.10;1.00;;;;;;6278988;28;20726;-53
2022/09/08 01:13:32;;;;;;;5.93;4.93;;;18.00;1.00;;;;;;6262737;28;20230;-54
2022/09/08 01:16:41;;;;;;;6.13;5.27;;;17.90;1.00;;;;;;6267453;28;20233;-53
2022/09/08 01:19:47;;;;;;;5.30;4.80;;;17.90;1.00;;;;;;6283759;28;20245;-54
2022/09/08 01:23:30;;;;;;;4.73;4.43;;;17.90;1.00;;;;;;6278863;28;20619;-54
2022/09/08 01:27:00;;;;;;;8.73;4.73;;;17.90;1.00;;;;;;6292810;28;20238;-53
2022/09/08 01:30:06;;;;;;;4.07;3.93;;;17.80;1.00;;;;;;6271830;28;20239;-55
2022/09/08 01:33:12;;;;;;;6.13;5.10;;;17.80;1.00;;;;;;6286710;28;20237;-54
2022/09/08 01:36:17;;;;;;;4.90;4.50;;;17.80;1.00;;;;;;6282964;28;20237;-54
2022/09/08 01:39:20;;;;;;;5.40;4.90;;;17.70;1.00;;;;;;6264669;28;20234;-53
2022/09/08 01:42:26;;;;;;;4.60;4.30;;;17.70;1.00;;;;;;6267760;28;20246;-55
2022/09/08 01:45:29;;;;;;;4.57;4.27;;;17.70;1.00;;;;;;6295799;28;20256;-53
2022/09/08 01:48:33;;;;;;;5.07;4.77;;;17.60;1.00;;;;;;6272169;28;20629;-54
2022/09/08 01:51:46;;;;;;;5.10;4.70;;;17.70;1.00;;;;;;6286082;28;20511;-54
2022/09/08 01:54:51;;;;;;;6.13;4.67;;;17.60;1.00;;;;;;6284958;28;20252;-53
2022/09/08 01:57:55;;;;;;;4.87;4.40;;;17.70;1.00;;;;;;6284119;28;20268;-54
2022/09/08 02:00:58;;;;;;;7.70;4.60;;;17.70;1.00;;;;;;6284944;28;20241;-53
2022/09/08 02:04:02;;;;;;;5.17;4.77;;;17.60;1.00;;;;;;6285034;28;20229;-53
2022/09/08 02:07:05;;;;;;;6.93;4.50;;;17.70;1.00;;;;;;6260644;28;20241;-54
2022/09/08 02:10:09;;;;;;;6.43;4.80;;;17.60;1.00;;;;;;6260017;28;20249;-54
2022/09/08 02:13:13;;;;;;;6.27;4.37;;;17.60;1.00;;;;;;6259358;28;20226;-54
2022/09/08 02:16:16;;;;;;;5.20;4.73;;;17.60;1.00;;;;;;6281418;28;20725;-55
2022/09/08 02:19:19;;;;;;;5.03;4.23;;;17.60;1.00;;;;;;6284473;28;20290;-53
2022/09/08 02:22:22;;;;;;;10.00;4.73;;;17.50;1.00;;;;;;6286824;28;20489;-53
2022/09/08 02:25:25;;;;;;;7.93;4.60;;;17.50;1.00;;;;;;6290445;28;20240;-54
2022/09/08 02:28:31;;;;;;;10.27;4.00;;;17.40;1.00;;;;;;6290373;28;20240;-53
2022/09/08 02:31:36;;;;;;;4.87;4.43;;;17.40;1.00;;;;;;6271650;28;20241;-56
2022/09/08 02:34:39;;;;;;;5.33;4.60;;;17.30;1.00;;;;;;6282118;28;20711;-53
2022/09/08 02:37:42;;;;;;;4.03;3.77;;;17.30;1.00;;;;;;6285942;28;20339;-54
2022/09/08 02:40:44;;;;;;;4.37;4.10;;;17.20;1.00;;;;;;6261406;28;20643;-53
2022/09/08 02:43:49;;;;;;;5.57;4.60;;;17.20;1.00;;;;;;6261211;28;20238;-52
2022/09/08 02:46:52;;;;;;;5.70;4.37;;;17.20;1.00;;;;;;6260052;28;20242;-55
2022/09/08 02:49:54;;;;;;;5.00;4.50;;;17.20;1.00;;;;;;6274915;28;20602;-54
2022/09/08 02:56:14;;;;;;;5.10;4.23;;;17.20;1.00;;;;;;6270341;28;20306;-54
2022/09/08 02:59:18;;;;;;;4.17;3.90;;;17.10;1.00;;;;;;6284662;28;20241;-54
2022/09/08 03:02:32;;;;;;;6.33;4.60;;;17.10;1.00;;;;;;6283879;28;20263;-52
2022/09/08 03:05:35;;;;;;;6.07;4.43;;;17.10;1.00;;;;;;6285726;28;20230;-53
2022/09/08 03:08:38;;;;;;;5.57;4.40;;;17.00;1.00;;;;;;6286019;28;20260;-54
2022/09/08 03:11:41;;;;;;;5.27;4.37;;;17.00;1.00;;;;;;6273561;28;20242;-53
2022/09/08 03:14:45;;;;;;;3.70;3.50;;;17.00;1.00;;;;;;6282741;28;20229;-54
2022/09/08 03:17:48;;;;;;;5.67;4.10;;;16.90;1.00;;;;;;6283230;28;20264;-54
2022/09/08 03:20:59;;;;;;;4.43;4.13;;;16.90;1.00;;;;;;6282355;28;20736;-54
2022/09/08 03:24:03;;;;;;;8.43;4.30;;;16.80;1.00;;;;;;6273872;28;20233;-46
2022/09/08 03:27:06;;;;;;;6.33;4.33;;;16.80;1.00;;;;;;6283289;28;20240;-52
2022/09/08 03:30:13;;;;;;;4.40;4.10;;;16.80;1.00;;;;;;6284119;28;20259;-53
2022/09/08 03:33:16;;;;;;;7.47;4.70;;;16.80;1.00;;;;;;6250333;28;20237;-54
2022/09/08 03:36:20;;;;;;;12.23;4.47;;;16.80;1.00;;;;;;6278802;28;20612;-55
2022/09/08 03:39:23;;;;;;;5.17;4.73;;;16.70;1.00;;;;;;6277942;28;20240;-55
2022/09/08 03:42:26;;;;;;;6.47;4.80;;;16.80;1.00;;;;;;6281086;28;20500;-55
2022/09/08 03:45:30;;;;;;;7.47;4.63;;;16.70;1.00;;;;;;6280314;28;20690;-54
2022/09/08 03:48:34;;;;;;;7.23;4.37;;;16.70;1.00;;;;;;6292085;28;20388;-54
2022/09/08 03:51:37;;;;;;;5.17;4.30;;;16.60;1.00;;;;;;6278991;28;20296;-53
2022/09/08 03:54:48;;;;;;;7.63;4.57;;;16.60;1.00;;;;;;6282512;28;20749;-55
2022/09/08 03:57:51;;;;;;;6.87;4.30;;;16.60;1.00;;;;;;6282513;28;20237;-54
2022/09/08 04:00:56;;;;;;;7.23;4.57;;;16.60;1.00;;;;;;6287470;28;20260;-57
2022/09/08 04:03:58;;;;;;;6.53;4.47;;;16.60;1.00;;;;;;6290591;28;20960;-54
2022/09/08 04:07:01;;;;;;;4.70;4.27;;;16.40;1.00;;;;;;6301533;28;20709;-55
2022/09/08 04:10:07;;;;;;;4.67;4.27;;;16.50;1.00;;;;;;6290650;28;20240;-53
2022/09/08 04:13:18;;;;;;;5.00;4.60;;;16.50;1.00;;;;;;6284215;28;20221;-54
2022/09/08 04:16:40;;;;;;;6.30;4.30;;;16.40;1.00;;;;;;6285426;28;20225;-54
2022/09/08 04:19:43;;;;;;;5.13;4.60;;;16.40;1.00;;;;;;6279456;28;20230;-54
2022/09/08 04:22:50;;;;;;;4.50;4.20;;;16.30;1.00;;;;;;6277981;28;20815;-59
2022/09/08 04:25:57;;;;;;;6.27;4.53;;;16.30;1.00;;;;;;6288828;28;20233;-52
2022/09/08 04:29:01;;;;;;;7.40;4.93;;;16.30;1.00;;;;;;6287830;28;20241;-54
2022/09/08 04:32:07;;;;;;;4.70;4.33;;;16.20;1.00;;;;;;6286841;28;20698;-53
2022/09/08 04:35:10;;;;;;;5.67;5.20;;;16.20;1.00;;;;;;6288221;28;20744;-54
2022/09/08 04:38:12;;;;;;;5.13;4.63;;;16.20;1.00;;;;;;6286404;28;20240;-54
2022/09/08 04:41:17;;;;;;;5.20;4.40;;;16.20;1.00;;;;;;6286905;28;20271;-54
2022/09/08 04:44:20;;;;;;;4.50;4.20;;;16.20;1.00;;;;;;6293033;28;20240;-53
2022/09/08 04:47:24;;;;;;;4.57;4.27;;;16.20;1.00;;;;;;6283934;28;20233;-55
2022/09/08 04:50:27;;;;;;;5.40;4.70;;;16.20;1.00;;;;;;6283560;28;20298;-54
2022/09/08 04:53:32;;;;;;;5.67;4.87;;;16.20;1.00;;;;;;6283589;28;20259;-53
2022/09/08 04:56:35;;;;;;;5.13;4.63;;;16.20;1.00;;;;;;6284617;28;20907;-55
2022/09/08 04:59:38;;;;;;;8.33;4.70;;;16.30;1.00;;;;;;6285682;28;20237;-53
2022/09/08 05:02:46;;;;;;;6.77;5.20;;;16.30;1.00;;;;;;6274589;28;20627;-50
2022/09/08 05:05:48;;;;;;;5.90;4.63;;;16.30;1.00;;;;;;6286672;28;20244;-55
2022/09/08 05:09:05;;;;;;;5.13;4.83;;;16.30;1.00;;;;;;6277861;28;20256;-53
2022/09/08 05:12:08;;;;;;;5.77;5.27;;;16.30;1.00;;;;;;6274185;28;20246;-53
2022/09/08 05:15:11;;;;;;;6.80;4.70;;;16.30;1.00;;;;;;6283165;28;20714;-54
2022/09/08 05:18:15;;;;;;;10.40;4.80;;;16.40;1.00;;;;;;6283501;28;20632;-53
2022/09/08 05:21:19;;;;;;;10.20;5.10;;;16.40;1.00;;;;;;6284937;28;20244;-53
2022/09/08 05:24:22;;;;;;;5.27;4.87;;;16.40;1.00;;;;;;6269026;28;20236;-54
2022/09/08 05:27:24;;;;;;;7.53;4.57;;;16.40;1.00;;;;;;6281852;28;20942;-54
2022/09/08 05:30:31;;;;;;;5.37;4.87;;;16.40;1.00;;;;;;6280523;28;20612;-53
2022/09/08 05:33:35;;;;;;;7.97;5.40;;;16.50;1.00;;;;;;6281421;28;20229;-52
2022/09/08 05:36:38;;;;;;;5.27;4.87;;;16.50;1.00;;;;;;6284496;28;20760;-53
2022/09/08 05:39:50;;;;;;;9.97;5.00;;;16.60;1.00;;;;;;6285392;28;20252;-52
2022/09/08 05:42:53;;;;;;;5.60;5.10;;;16.60;1.00;;;;;;6279555;28;20230;-55
2022/09/08 05:45:56;;;;;;;8.97;5.13;;;16.60;1.00;;;;;;6279376;28;20491;-54
2022/09/08 05:49:01;;;;;;;5.57;5.00;;;16.60;1.00;;;;;;6276997;28;20987;-54
2022/09/08 05:52:04;;;;;;;8.73;5.33;;;16.70;1.00;;;;;;6293653;28;20241;-55
2022/09/08 05:55:09;;;;;;;5.60;5.03;;;16.70;1.00;;;;;;6284214;28;20373;-54
2022/09/08 05:58:13;;;;;;;5.73;5.23;;;16.70;1.00;;;;;;6285626;28;20236;-56
2022/09/08 06:01:26;;;;;;;8.03;5.70;;;16.70;1.00;;;;;;6282457;28;20241;-53
2022/09/08 06:04:31;;;;;;;8.30;4.77;;;16.80;1.00;;;;;;6279243;28;20309;-53
2022/09/08 06:07:44;;;;;;;7.90;5.20;;;16.80;1.00;;;;;;6284980;28;20241;-54
2022/09/08 06:10:50;;;;;;;6.83;5.40;;;16.90;1.00;;;;;;6283739;28;20352;-54
2022/09/08 06:13:53;;;;;;;6.80;5.33;;;16.90;1.00;;;;;;6278878;28;20260;-55
2022/09/08 06:16:56;;;;;;;6.37;5.07;;;16.90;1.00;;;;;;6284947;28;20260;-54
2022/09/08 06:20:00;;;;;;;11.60;5.50;;;16.90;1.00;;;;;;6284503;28;20729;-54
2022/09/08 06:23:03;;;;;;;6.10;5.53;;;16.90;1.00;;;;;;6281600;28;20248;-54
2022/09/08 06:26:30;;;;;;;7.50;5.07;;;16.90;1.00;;;;;;6285484;28;20237;-54
2022/09/08 06:29:46;;;;;;;7.20;5.73;;;16.90;1.00;;;;;;6284290;28;20233;-54
2022/09/08 06:32:53;;;;;;;8.30;5.73;;;17.00;1.00;;;;;;6285050;28;20624;-53
2022/09/08 06:36:03;;;;;;;12.93;6.30;;;17.00;1.00;;;;;;6279670;28;20244;-55
2022/09/08 06:39:12;;;;;;;8.20;6.10;;;17.10;1.00;;;;;;6280085;28;20616;-54
2022/09/08 06:42:19;;;;;;;9.60;6.43;;;17.20;1.00;;;;;;6284161;28;20237;-53
2022/09/08 06:45:25;;;;;;;9.77;6.00;;;17.20;1.00;;;;;;6286795;28;20225;-52
2022/09/08 06:48:31;;;;;;;7.87;5.83;;;17.20;1.00;;;;;;6290007;28;20256;-54
2022/09/08 06:51:42;;;;;;;6.40;5.80;;;17.20;1.00;;;;;;6282659;28;20245;-53
2022/09/08 06:54:52;;;;;;;6.23;5.63;;;17.30;1.00;;;;;;6285389;28;20766;-53
2022/09/08 06:58:08;;;;;;;7.03;6.10;;;17.30;1.00;;;;;;6278096;28;20228;-53
2022/09/08 07:01:19;;;;;;;6.43;5.93;;;17.30;1.00;;;;;;6287331;28;20233;-54
2022/09/08 07:04:33;;;;;;;7.13;5.70;;;17.40;1.00;;;;;;6284745;28;20225;-55
2022/09/08 07:07:44;;;;;;;6.33;5.77;;;17.30;1.00;;;;;;6283885;28;20233;-54
2022/09/08 07:10:54;;;;;;;10.50;6.37;;;17.40;1.00;;;;;;6284774;28;20240;-53
2022/09/08 07:14:05;;;;;;;9.57;6.20;;;17.40;1.00;;;;;;6285058;28;20703;-58
2022/09/08 07:17:16;;;;;;;6.70;6.20;;;17.50;1.00;;;;;;6279829;28;20942;-53
2022/09/08 07:20:19;;;;;;;8.60;5.73;;;17.40;1.00;;;;;;6280930;28;20240;-57
2022/09/08 07:23:27;;;;;;;9.03;6.03;;;17.50;1.00;;;;;;6282728;28;20225;-55
2022/09/08 07:26:38;;;;;;;7.20;6.50;;;17.60;1.00;;;;;;6287517;28;20449;-54
2022/09/08 07:29:47;;;;;;;6.70;6.07;;;17.70;1.00;;;;;;6278917;28;20774;-54
2022/09/08 07:32:54;;;;;;;9.73;5.90;;;17.90;1.00;;;;;;6284213;28;20245;-53
2022/09/08 07:36:23;;;;;;;8.47;6.23;;;18.00;1.00;;;;;;6279788;28;20336;-53
2022/09/08 07:39:37;;;;;;;9.87;6.10;;;18.00;1.00;;;;;;6282812;28;20600;-53
2022/09/08 07:42:50;;;;;;;9.00;6.10;;;18.10;1.00;;;;;;6277045;28;20730;-55
2022/09/08 07:46:07;;;;;;;7.77;6.20;;;18.20;1.00;;;;;;6275775;28;20237;-55
2022/09/08 07:49:19;;;;;;;8.03;6.47;;;18.20;1.00;;;;;;6279261;28;20237;-52
2022/09/08 07:52:35;;;;;;;6.20;5.70;;;18.30;1.00;;;;;;6270496;28;20237;-54
2022/09/08 07:55:41;;;;;;;11.10;6.47;;;18.30;1.00;;;;;;6299109;28;20233;-58
2022/09/08 07:58:51;;;;;;;8.13;6.20;;;18.40;1.00;;;;;;6283604;28;20235;-51
2022/09/08 08:02:02;;;;;;;7.23;6.47;;;18.50;1.00;;;;;;6278581;28;20233;-61
2022/09/08 08:05:18;;;;;;;6.90;6.23;;;18.70;1.00;;;;;;6284774;28;20240;-54
2022/09/08 08:08:27;;;;;;;12.40;6.30;;;18.90;1.00;;;;;;6287076;28;20221;-54
2022/09/08 08:11:39;;;;;;;6.47;5.90;;;19.00;1.00;;;;;;6282281;28;20241;-53
2022/09/08 08:14:47;;;;;;;9.63;6.77;;;19.00;1.00;;;;;;6281138;28;20234;-52
2022/09/08 08:17:56;;;;;;;10.57;6.57;;;19.10;1.00;;;;;;6288766;28;20640;-56
2022/09/08 08:21:04;;;;;;;9.07;6.90;;;19.00;1.00;;;;;;6262119;28;20238;-50
2022/09/08 08:24:24;;;;;;;10.17;7.00;;;19.00;1.00;;;;;;6282025;28;20241;-53
2022/09/08 08:27:34;;;;;;;12.57;6.83;;;18.90;1.00;;;;;;6278079;28;20646;-54
2022/09/08 08:30:42;;;;;;;12.30;6.60;;;18.90;1.00;;;;;;6276499;28;20245;-52
2022/09/08 08:33:49;;;;;;;7.40;6.57;;;18.80;1.00;;;;;;6275098;28;20259;-58
2022/09/08 08:36:57;;;;;;;7.90;6.80;;;18.70;1.00;;;;;;6282733;28;20252;-54
2022/09/08 08:40:01;;;;;;;10.97;6.00;;;18.70;1.00;;;;;;6274436;28;20484;-54
2022/09/08 08:43:27;;;;;;;7.87;6.83;;;18.60;1.00;;;;;;6272286;28;20310;-54
2022/09/08 08:46:44;;;;;;;8.57;6.53;;;18.40;1.00;;;;;;6285609;28;20237;-53
2022/09/08 08:50:10;;;;;;;7.93;7.30;;;18.30;1.00;;;;;;6285496;28;20244;-54
2022/09/08 08:53:36;;;;;;;10.63;6.83;;;18.30;1.00;;;;;;6285958;28;20237;-58
2022/09/08 08:57:14;;;;;;;8.73;6.47;;;18.00;1.00;;;;;;6282276;28;20238;-55
2022/09/08 09:00:20;;;;;;;9.47;7.47;;;18.00;1.00;;;;;;6286862;28;20496;-54
2022/09/08 09:03:46;;;;;;;9.63;7.20;;;17.90;1.00;;;;;;6286545;28;20241;-56
2022/09/08 09:07:21;;;;;;;9.70;7.33;;;17.90;1.00;;;;;;6284076;28;20253;-54
2022/09/08 09:10:49;;;;;;;11.90;7.60;;;17.90;1.00;;;;;;6276083;28;20248;-53
2022/09/08 09:14:19;;;;;;;8.53;7.60;;;18.10;1.00;;;;;;6284842;28;20236;-57
2022/09/08 09:17:43;;;;;;;10.27;7.40;;;18.20;1.00;;;;;;6291260;28;20229;-61
2022/09/08 09:20:52;;;;;;;7.80;7.27;;;18.30;1.00;;;;;;6285168;28;20244;-53
2022/09/08 09:24:09;;;;;;;10.43;7.87;;;18.40;1.00;;;;;;6287750;28;20244;-53
2022/09/08 09:27:18;;;;;;;11.43;7.97;;;18.40;1.00;;;;;;6280390;28;20239;-53
2022/09/08 09:30:25;;;;;;;14.17;7.63;;;18.50;1.00;;;;;;6285999;28;20244;-54
2022/09/08 09:34:01;;;;;;;13.23;8.40;;;18.60;1.00;;;;;;6281125;28;20710;-53
2022/09/08 09:37:29;;;;;;;13.20;8.37;;;18.60;1.00;;;;;;6260980;28;20236;-54
2022/09/08 09:40:55;;;;;;;12.23;8.10;;;18.60;1.00;;;;;;6284240;28;20236;-54
2022/09/08 09:44:16;;;;;;;11.83;8.43;;;18.60;1.00;;;;;;6280706;28;20249;-53
2022/09/08 09:47:38;;;;;;;9.17;8.20;;;18.60;1.00;;;;;;6286063;28;20797;-53
2022/09/08 09:50:53;;;;;;;10.67;7.43;;;18.60;1.00;;;;;;6281878;28;20241;-53
2022/09/08 09:54:17;;;;;;;10.40;8.30;;;18.50;1.00;;;;;;6298347;28;20236;-54
2022/09/08 09:57:45;;;;;;;11.03;8.30;;;18.60;1.00;;;;;;6294327;28;20236;-52
2022/09/08 10:01:17;;;;;;;10.70;8.40;;;18.60;1.00;;;;;;6288498;28;20240;-54
2022/09/08 10:04:54;;;;;;;9.47;8.03;;;18.70;1.00;;;;;;6283131;28;20225;-54
2022/09/08 10:12:03;;;;;;;8.87;7.83;;;18.70;1.00;;;;;;6319879;27;20581;-54
2022/09/08 10:15:37;;;;;;;8.40;7.70;;;18.70;1.00;;;;;;6297894;27;20229;-54
2022/09/08 10:18:57;;;;;;;11.03;8.90;;;18.70;1.00;;;;;;6277683;28;20317;-54
2022/09/08 10:22:28;;;;;;;12.10;9.23;;;18.60;1.00;;;;;;6308603;27;20232;-53
2022/09/08 10:25:47;;;;;;;11.13;8.20;;;18.50;1.00;;;;;;6333334;27;20708;-55
2022/09/08 10:29:09;;;;;;;11.80;8.57;;;18.50;1.00;;;;;;6326881;27;20251;-55
2022/09/08 10:32:42;;;;;;;8.53;7.67;;;18.40;1.00;;;;;;6317312;27;20241;-53
2022/09/08 10:35:47;;;;;;;10.87;9.10;;;18.40;1.00;;;;;;6303495;28;20262;-54
2022/09/08 10:38:57;;;;;;;11.93;9.67;;;18.30;1.00;;;;;;6307451;28;20591;-53
2022/09/08 10:42:37;;;;;;;13.50;9.37;;;18.30;1.00;;;;;;6321606;27;20374;-55
2022/09/08 10:46:03;;;;;;;10.43;9.57;;;18.20;1.00;;;;;;6297518;28;20236;-51
2022/09/08 10:49:40;;;;;;;13.90;10.23;;;18.10;1.00;;;;;;6307347;28;20315;-54
2022/09/08 10:53:26;;;;;;;13.30;10.20;;;18.00;1.00;;;;;;6310636;27;20619;-55
2022/09/08 10:56:33;;;;;;;12.70;10.50;;;17.80;1.00;;;;;;6320024;27;20312;-55
2022/09/08 10:59:57;;;;;;;10.73;9.67;;;17.60;1.00;;;;;;6321085;28;20232;-56
2022/09/08 11:03:24;;;;;;;11.03;10.00;;;17.60;1.00;;;;;;6313028;28;20236;-54
2022/09/08 11:06:40;;;;;;;11.57;10.30;;;17.60;1.00;;;;;;6324145;27;20225;-54
2022/09/08 11:09:56;;;;;;;11.37;10.33;;;17.60;1.00;;;;;;6333585;27;20393;-55
2022/09/08 11:13:28;;;;;;;12.57;10.67;;;17.60;1.00;;;;;;6324109;27;20251;-54
2022/09/08 11:17:11;;;;;;;15.57;11.23;;;17.70;1.00;;;;;;6321648;27;20235;-52
2022/09/08 11:20:27;;;;;;;13.80;11.07;;;17.70;1.00;;;;;;6318271;27;20241;-55
2022/09/08 11:23:54;;;;;;;12.80;11.63;;;17.80;1.00;;;;;;6308981;28;20233;-53
2022/09/08 11:27:05;;;;;;;14.13;11.60;;;17.80;1.00;;;;;;6311306;28;20240;-54
2022/09/08 11:30:19;;;;;;;14.97;10.67;;;17.70;1.00;;;;;;6287285;28;20435;-53
2022/09/08 11:33:40;;;;;;;12.43;11.23;;;17.60;1.00;;;;;;6321680;28;20763;-55
2022/09/08 11:37:26;;;;;;;14.17;12.90;;;17.70;1.00;;;;;;6292029;28;20241;-55
2022/09/08 11:40:55;;;;;;;13.50;12.20;;;17.70;1.00;;;;;;6269918;28;20329;-54
2022/09/08 11:44:20;;;;;;;13.47;11.70;;;17.80;1.00;;;;;;6274792;28;20240;-53
2022/09/08 11:47:58;;;;;;;14.13;12.40;;;17.70;1.00;;;;;;6269218;28;20233;-54
2022/09/08 11:51:33;;;;;;;12.73;11.70;;;17.60;1.00;;;;;;6283839;28;20248;-53
2022/09/08 11:55:11;;;;;;;15.00;12.27;;;17.60;1.00;;;;;;6293240;28;20245;-54
2022/09/08 11:58:24;;;;;;;15.67;11.80;;;17.70;1.00;;;;;;6313740;28;20236;-54
2022/09/08 12:01:40;;;;;;;13.93;12.63;;;17.70;1.00;;;;;;6321731;28;20248;-55
2022/09/08 12:04:57;;;;;;;15.70;13.47;;;17.80;1.00;;;;;;6310123;28;20241;-55
2022/09/08 12:08:45;;;;;;;13.83;12.50;;;17.80;1.00;;;;;;6314951;28;20237;-54
2022/09/08 12:12:23;;;;;;;14.60;13.10;;;17.80;1.00;;;;;;6308861;28;20244;-54
2022/09/08 12:15:45;;;;;;;12.80;11.47;;;17.80;1.00;;;;;;6303678;28;20579;-54
2022/09/08 12:19:00;;;;;;;18.57;12.73;;;17.90;1.00;;;;;;6311457;28;20644;-53
2022/09/08 12:22:16;;;;;;;13.90;12.70;;;18.00;1.00;;;;;;6310562;28;20724;-55
2022/09/08 12:25:51;;;;;;;14.03;12.03;;;18.10;1.00;;;;;;6313914;28;20219;-55
2022/09/08 12:29:42;;;;;;;13.37;12.17;;;18.10;1.00;;;;;;6307876;28;20229;-61
2022/09/08 12:33:20;;;;;;;12.80;11.47;;;18.10;1.00;;;;;;6305685;28;20252;-53
2022/09/08 12:36:33;;;;;;;12.60;11.67;;;18.10;1.00;;;;;;6310327;28;20229;-53
2022/09/08 12:40:18;;;;;;;15.77;11.63;;;18.20;1.00;;;;;;6311783;28;20465;-57
2022/09/08 12:43:23;;;;;;;13.60;12.50;;;18.30;1.00;;;;;;6299898;28;20733;-54
2022/09/08 12:46:38;;;;;;;13.47;12.13;;;18.50;1.00;;;;;;6321246;28;20618;-56
2022/09/08 12:50:14;;;;;;;13.63;11.70;;;18.60;1.00;;;;;;6312304;28;20233;-53
2022/09/08 12:53:57;;;;;;;16.63;11.90;;;18.70;1.00;;;;;;6299865;28;20395;-55
2022/09/08 12:57:23;;;;;;;13.30;12.00;;;18.80;1.00;;;;;;6302848;28;20252;-55
2022/09/08 13:00:30;;;;;;;13.33;12.10;;;18.90;1.00;;;;;;6304014;28;20237;-53
2022/09/08 13:03:35;;;;;;;14.13;12.73;;;18.90;1.00;;;;;;6323863;28;20367;-54
2022/09/08 13:07:13;;;;;;;12.80;11.67;;;19.00;1.00;;;;;;6308544;28;20236;-59
2022/09/08 13:10:21;;;;;;;13.67;12.40;;;19.10;1.00;;;;;;6298511;28;20229;-58
2022/09/08 13:13:38;;;;;;;13.30;12.10;;;19.20;1.00;;;;;;6311040;28;20608;-54
2022/09/08 13:16:51;;;;;;;14.77;13.07;;;19.30;1.00;;;;;;6308355;28;20233;-54
2022/09/08 13:20:16;;;;;;;13.00;11.80;;;19.40;1.00;;;;;;6308802;28;20567;-55
2022/09/08 13:23:36;;;;;;;14.03;12.57;;;19.50;1.00;;;;;;6307684;28;20232;-53
2022/09/08 13:27:04;;;;;;;13.30;12.20;;;19.70;1.00;;;;;;6313992;28;20240;-55
2022/09/08 13:30:14;;;;;;;14.30;12.80;;;19.80;1.00;;;;;;6303079;28;20237;-53
2022/09/08 13:33:40;;;;;;;16.87;11.97;;;19.90;1.00;;;;;;6302618;28;20236;-54
2022/09/08 13:37:03;;;;;;;14.50;13.17;;;19.80;1.00;;;;;;6313470;28;20244;-55
2022/09/08 13:40:19;;;;;;;13.53;12.33;;;19.80;1.00;;;;;;6318908;28;20842;-54
2022/09/08 13:43:45;;;;;;;15.07;13.80;;;19.60;1.00;;;;;;6306016;28;20335;-53
2022/09/08 13:47:02;;;;;;;14.23;12.83;;;19.60;1.00;;;;;;6280860;28;20241;-55
2022/09/08 13:50:19;;;;;;;18.37;13.10;;;19.40;1.00;;;;;;6303449;28;20395;-54
2022/09/08 13:53:44;;;;;;;17.13;14.27;;;19.40;1.00;;;;;;6318235;28;20229;-55
2022/09/08 13:57:25;;;;;;;14.70;13.20;;;19.20;1.00;;;;;;6300449;28;20236;-56
2022/09/08 14:01:00;;;;;;;16.30;13.87;;;19.10;1.00;;;;;;6306198;28;20225;-53
2022/09/08 14:04:16;;;;;;;15.47;13.87;;;18.90;1.00;;;;;;6296975;28;20243;-53
2022/09/08 14:07:22;;;;;;;16.17;14.47;;;18.80;1.00;;;;;;6304878;28;20442;-54
2022/09/08 14:11:02;;;;;;;18.70;15.00;;;18.60;1.00;;;;;;6303979;28;20591;-55
2022/09/08 14:14:55;;;;;;;15.63;14.00;;;18.60;1.00;;;;;;6278008;28;20706;-52
2022/09/08 14:18:32;;;;;;;15.90;14.37;;;18.40;1.00;;;;;;6303575;28;20327;-53
2022/09/08 14:21:47;;;;;;;15.90;14.33;;;18.30;1.00;;;;;;6310067;28;20236;-55
2022/09/08 14:24:59;;;;;;;15.90;14.40;;;18.20;1.00;;;;;;6317242;28;20231;-53
2022/09/08 14:28:13;;;;;;;15.40;14.10;;;18.10;1.00;;;;;;6296199;28;20256;-53
2022/09/08 14:31:23;;;;;;;16.23;14.57;;;18.10;1.00;;;;;;6287454;28;20729;-53
2022/09/08 14:34:35;;;;;;;18.40;16.30;;;18.00;1.00;;;;;;6298595;28;20332;-53
2022/09/08 14:37:48;;;;;;;17.40;14.83;;;17.90;1.00;;;;;;6293564;28;20232;-53
2022/09/08 14:41:05;;;;;;;17.13;15.40;;;17.90;1.00;;;;;;6298485;28;20233;-53
2022/09/08 14:44:23;;;;;;;19.57;17.57;;;17.80;1.00;;;;;;6308109;28;20324;-53
2022/09/08 14:47:30;;;;;;;18.97;17.17;;;17.70;1.00;;;;;;6300719;28;20240;-53
2022/09/08 14:50:52;;;;;;;17.93;16.53;;;17.70;1.00;;;;;;6296784;28;20255;-54
2022/09/08 14:54:19;;;;;;;19.40;17.40;;;17.60;1.00;;;;;;6300091;28;20423;-53
2022/09/08 14:57:29;;;;;;;19.33;17.43;;;17.60;1.00;;;;;;6298108;28;20225;-57
2022/09/08 15:00:38;;;;;;;21.53;19.17;;;17.60;1.00;;;;;;6322962;28;20732;-55
2022/09/08 15:03:54;;;;;;;21.17;19.27;;;17.60;1.00;;;;;;6325706;28;20398;-53
2022/09/08 15:06:59;;;;;;;20.23;18.33;;;17.60;1.00;;;;;;6319227;28;20243;-54
2022/09/08 15:10:06;;;;;;;20.70;18.70;;;17.60;1.00;;;;;;6308110;28;20720;-53
2022/09/08 15:13:15;;;;;;;20.50;18.63;;;17.60;1.00;;;;;;6317367;28;20753;-54
2022/09/08 15:16:27;;;;;;;21.67;19.53;;;17.60;1.00;;;;;;6309481;28;20236;-53
2022/09/08 15:19:40;;;;;;;20.43;18.73;;;17.60;1.00;;;;;;6298953;28;20225;-54
2022/09/08 15:22:49;;;;;;;19.67;17.97;;;17.60;1.00;;;;;;6318221;28;20546;-53
2022/09/08 15:26:01;;;;;;;20.10;18.17;;;17.60;1.00;;;;;;6313337;28;20471;-53
2022/09/08 15:29:23;;;;;;;21.10;19.00;;;17.70;1.00;;;;;;6304598;28;20233;-53
2022/09/08 15:32:35;;;;;;;20.00;17.73;;;17.70;1.00;;;;;;6309821;28;20685;-53
2022/09/08 15:36:01;;;;;;;20.13;18.23;;;17.70;1.00;;;;;;6316185;28;20245;-52
2022/09/08 15:39:18;;;;;;;19.67;17.77;;;17.70;1.00;;;;;;6312520;28;20249;-54
2022/09/08 15:42:35;;;;;;;18.93;17.30;;;17.70;1.00;;;;;;6301835;28;20232;-53
2022/09/08 15:46:00;;;;;;;19.67;17.90;;;17.70;1.00;;;;;;6307133;28;20245;-54
2022/09/08 15:49:15;;;;;;;20.07;18.17;;;17.70;1.00;;;;;;6301409;28;20281;-53
2022/09/08 15:53:11;;;;;;;23.17;21.07;;;17.70;1.00;;;;;;6301323;28;20236;-54
2022/09/08 15:56:36;;;;;;;22.87;20.67;;;17.70;1.00;;;;;;6249434;28;20233;-53
2022/09/08 16:00:13;;;;;;;20.40;18.60;;;17.70;1.00;;;;;;6313636;28;20714;-54
2022/09/08 16:03:15;;;;;;;21.33;19.30;;;17.80;1.00;;;;;;6307362;28;20529;-55
2022/09/08 16:06:30;;;;;;;22.27;20.27;;;17.80;1.00;;;;;;6312364;28;20232;-54
2022/09/08 16:10:02;;;;;;;23.17;21.03;;;17.90;1.00;;;;;;6307176;28;20221;-54
2022/09/08 16:13:08;;;;;;;20.30;18.60;;;17.90;1.00;;;;;;6290485;28;20240;-53
2022/09/08 16:16:37;;;;;;;20.27;18.60;;;17.90;1.00;;;;;;6318934;28;20232;-55
2022/09/08 16:19:41;;;;;;;18.10;16.60;;;17.90;1.00;;;;;;6302683;28;20224;-59
2022/09/08 16:22:46;;;;;;;19.70;17.80;;;18.00;1.00;;;;;;6307648;28;20241;-53
2022/09/08 16:26:06;;;;;;;21.10;19.03;;;18.00;1.00;;;;;;6305828;28;20741;-53
2022/09/08 16:29:29;;;;;;;20.83;19.20;;;18.00;1.00;;;;;;6297187;28;20243;-55
2022/09/08 16:32:51;;;;;;;21.87;19.90;;;18.10;1.00;;;;;;6303030;28;20229;-54
2022/09/08 16:36:16;;;;;;;22.30;20.23;;;18.10;1.00;;;;;;6303535;28;20240;-54
2022/09/08 16:39:22;;;;;;;20.73;18.93;;;18.20;1.00;;;;;;6309441;28;20709;-54
2022/09/08 16:42:35;;;;;;;23.67;21.47;;;18.20;1.00;;;;;;6299362;28;20237;-54
2022/09/08 16:46:06;;;;;;;26.03;23.63;;;18.20;1.00;;;;;;6308265;28;20237;-54
2022/09/08 16:49:24;;;;;;;25.87;23.47;;;18.30;1.00;;;;;;6295321;28;20224;-54
2022/09/08 16:52:39;;;;;;;23.80;21.57;;;18.30;1.00;;;;;;6303288;28;20233;-53
2022/09/08 16:55:52;;;;;;;21.97;20.20;;;18.30;1.00;;;;;;6313063;28;20604;-56
2022/09/08 16:59:03;;;;;;;21.60;19.80;;;18.30;1.00;;;;;;6304782;28;20233;-53
2022/09/08 17:02:20;;;;;;;21.40;19.60;;;18.30;1.00;;;;;;6308515;28;20247;-54
2022/09/08 17:05:38;;;;;;;21.07;19.27;;;18.30;1.00;;;;;;6295848;28;20228;-54